This is the latest recevied weather packets stored in our database for station/object DL6MAA-11. If no packets are shown the sender has not sent any weather packets the latest 10 day(s).
| Time | Temp. | Humidity | Pressure | Rain* | Wind** | Luminosity | Snow |
|---|---|---|---|---|---|---|---|
| 1777980414 | 20.56° C | 50% | 1004.6 hPa | 0 mm | - | 250 W/m² | - |
| 1777980116 | 20.56° C | 51% | 1004.6 hPa | 0 mm | - | 308 W/m² | - |
| 1777979827 | 20.56° C | 52% | 1004.6 hPa | 0 mm | - | 264 W/m² | - |
| 1777979515 | 20.56° C | 51% | 1004.4 hPa | 0 mm | - | 287 W/m² | - |
| 1777979224 | 20.56° C | 52% | 1004.4 hPa | 0 mm | - | 357 W/m² | - |
| 1777978927 | 21.11° C | 53% | 1004.4 hPa | 0 mm | - | 341 W/m² | - |
| 1777978613 | 20.56° C | 50% | 1004.6 hPa | 0 mm | - | 552 W/m² | - |
| 1777978321 | 21.11° C | 52% | 1004.6 hPa | 0 mm | - | 401 W/m² | - |
| 1777978021 | 20.56° C | 52% | 1004.6 hPa | 0 mm | - | 649 W/m² | - |
| 1777977726 | 19.44° C | 56% | 1005.1 hPa | 0 mm | - | 473 W/m² | - |
| 1777977412 | 19.44° C | 54% | 1005.1 hPa | 0 mm | - | 250 W/m² | - |
| 1777977121 | 19.44° C | 56% | 1005.1 hPa | 0 mm | - | 239 W/m² | - |
| 1777976822 | 19.44° C | 55% | 1005 hPa | 0 mm | - | 258 W/m² | - |
| 1777976523 | 19.44° C | 54% | 1005 hPa | 0 mm | - | 271 W/m² | - |
| 1777976229 | 19.44° C | 54% | 1005 hPa | 0 mm | - | 322 W/m² | - |
| 1777975917 | 19.44° C | 55% | 1004.9 hPa | 0 mm | - | 436 W/m² | - |
| 1777975620 | 19.44° C | 56% | 1004.9 hPa | 0 mm | - | 304 W/m² | - |
| 1777975327 | 20° C | 54% | 1004.9 hPa | 0 mm | - | 311 W/m² | - |
| 1777975018 | 19.44° C | 56% | 1005 hPa | 0 mm | - | 339 W/m² | - |
| 1777974723 | 19.44° C | 59% | 1005 hPa | 0 mm | - | 323 W/m² | - |
| 1777974421 | 19.44° C | 57% | 1005 hPa | 0 mm | - | 257 W/m² | - |
| 1777974123 | 20° C | 55% | 1005 hPa | 0 mm | - | 253 W/m² | - |
| 1777973809 | 20° C | 55% | 1005 hPa | 0 mm | - | 269 W/m² | - |
| 1777973517 | 20° C | 59% | 1005 hPa | 0 mm | - | 279 W/m² | - |
| 1777973209 | 19.44° C | 60% | 1005.4 hPa | 0 mm | - | 257 W/m² | - |
* Rain since midnight (hover to see other rain measurements)
** Current wind speed in m/s (hover to see current wind gust speed)